sensor_id;sensor_type;location;lat;lon;timestamp;temperature;humidity
19248;DHT22;9758;48.640;8.148;2023-04-01T00:01:09;12.50;54.70
19248;DHT22;9758;48.640;8.148;2023-04-01T00:03:46;12.40;54.70
19248;DHT22;9758;48.640;8.148;2023-04-01T00:06:15;12.50;54.80
19248;DHT22;9758;48.640;8.148;2023-04-01T00:08:42;12.40;54.80
19248;DHT22;9758;48.640;8.148;2023-04-01T00:11:11;12.40;54.80
19248;DHT22;9758;48.640;8.148;2023-04-01T00:13:37;12.40;54.90
19248;DHT22;9758;48.640;8.148;2023-04-01T00:16:05;12.40;54.90
19248;DHT22;9758;48.640;8.148;2023-04-01T00:18:32;12.40;54.90
19248;DHT22;9758;48.640;8.148;2023-04-01T00:20:59;12.40;55.10
19248;DHT22;9758;48.640;8.148;2023-04-01T00:23:27;12.30;54.90
19248;DHT22;9758;48.640;8.148;2023-04-01T00:25:53;12.30;55.10
19248;DHT22;9758;48.640;8.148;2023-04-01T00:28:22;12.40;55.00
19248;DHT22;9758;48.640;8.148;2023-04-01T00:30:48;12.40;55.00
19248;DHT22;9758;48.640;8.148;2023-04-01T00:33:15;12.40;54.90
19248;DHT22;9758;48.640;8.148;2023-04-01T00:35:43;12.40;54.90
19248;DHT22;9758;48.640;8.148;2023-04-01T00:38:12;12.40;54.90
19248;DHT22;9758;48.640;8.148;2023-04-01T00:40:42;12.30;55.00
19248;DHT22;9758;48.640;8.148;2023-04-01T00:43:12;12.30;54.90
19248;DHT22;9758;48.640;8.148;2023-04-01T00:45:42;12.30;54.90
19248;DHT22;9758;48.640;8.148;2023-04-01T00:48:12;12.20;54.90
19248;DHT22;9758;48.640;8.148;2023-04-01T00:50:44;12.30;55.00
19248;DHT22;9758;48.640;8.148;2023-04-01T00:53:13;12.30;55.00
19248;DHT22;9758;48.640;8.148;2023-04-01T00:55:46;12.20;55.00
19248;DHT22;9758;48.640;8.148;2023-04-01T00:58:17;12.20;54.90
19248;DHT22;9758;48.640;8.148;2023-04-01T01:00:48;12.10;55.00
19248;DHT22;9758;48.640;8.148;2023-04-01T01:03:17;12.20;54.90
19248;DHT22;9758;48.640;8.148;2023-04-01T01:06:07;12.20;54.90
19248;DHT22;9758;48.640;8.148;2023-04-01T01:08:49;12.20;54.90
19248;DHT22;9758;48.640;8.148;2023-04-01T01:11:25;12.20;54.90
19248;DHT22;9758;48.640;8.148;2023-04-01T01:13:58;12.20;54.80
19248;DHT22;9758;48.640;8.148;2023-04-01T01:16:30;12.20;54.80
19248;DHT22;9758;48.640;8.148;2023-04-01T01:19:06;12.20;54.70
19248;DHT22;9758;48.640;8.148;2023-04-01T01:21:55;12.20;54.80
19248;DHT22;9758;48.640;8.148;2023-04-01T01:24:39;12.20;54.80
19248;DHT22;9758;48.640;8.148;2023-04-01T01:27:10;12.10;54.80
19248;DHT22;9758;48.640;8.148;2023-04-01T01:33:02;12.10;54.90
19248;DHT22;9758;48.640;8.148;2023-04-01T01:35:35;12.10;54.90
19248;DHT22;9758;48.640;8.148;2023-04-01T01:38:06;12.10;54.80
19248;DHT22;9758;48.640;8.148;2023-04-01T01:40:36;12.10;54.80
19248;DHT22;9758;48.640;8.148;2023-04-01T01:43:08;12.10;54.80
19248;DHT22;9758;48.640;8.148;2023-04-01T01:45:40;12.10;54.80
19248;DHT22;9758;48.640;8.148;2023-04-01T01:48:11;12.10;54.80
19248;DHT22;9758;48.640;8.148;2023-04-01T01:50:41;12.10;54.80
19248;DHT22;9758;48.640;8.148;2023-04-01T01:53:11;12.00;54.80
19248;DHT22;9758;48.640;8.148;2023-04-01T01:55:40;12.10;54.80
19248;DHT22;9758;48.640;8.148;2023-04-01T01:58:18;12.10;54.80
19248;DHT22;9758;48.640;8.148;2023-04-01T02:00:49;12.10;54.80
19248;DHT22;9758;48.640;8.148;2023-04-01T02:03:17;12.10;54.70
19248;DHT22;9758;48.640;8.148;2023-04-01T02:05:47;12.10;54.80
19248;DHT22;9758;48.640;8.148;2023-04-01T02:08:17;12.10;54.70
19248;DHT22;9758;48.640;8.148;2023-04-01T02:10:53;12.10;54.80
19248;DHT22;9758;48.640;8.148;2023-04-01T02:13:25;12.10;54.70
19248;DHT22;9758;48.640;8.148;2023-04-01T02:15:58;12.10;54.70
19248;DHT22;9758;48.640;8.148;2023-04-01T02:18:26;12.10;54.60
19248;DHT22;9758;48.640;8.148;2023-04-01T02:20:57;12.10;54.60
19248;DHT22;9758;48.640;8.148;2023-04-01T02:23:26;12.10;54.60
19248;DHT22;9758;48.640;8.148;2023-04-01T02:25:54;12.00;54.60
19248;DHT22;9758;48.640;8.148;2023-04-01T02:28:22;12.00;54.70
19248;DHT22;9758;48.640;8.148;2023-04-01T02:30:50;12.00;54.80
19248;DHT22;9758;48.640;8.148;2023-04-01T02:33:18;11.90;54.70
19248;DHT22;9758;48.640;8.148;2023-04-01T02:35:46;12.00;54.80
19248;DHT22;9758;48.640;8.148;2023-04-01T02:38:15;12.00;54.70
19248;DHT22;9758;48.640;8.148;2023-04-01T02:40:44;12.00;54.60
19248;DHT22;9758;48.640;8.148;2023-04-01T02:43:12;12.00;54.60
19248;DHT22;9758;48.640;8.148;2023-04-01T02:45:38;12.00;54.50
19248;DHT22;9758;48.640;8.148;2023-04-01T02:48:05;12.00;54.60
19248;DHT22;9758;48.640;8.148;2023-04-01T02:50:32;11.90;54.60
19248;DHT22;9758;48.640;8.148;2023-04-01T02:53:00;11.90;54.70
19248;DHT22;9758;48.640;8.148;2023-04-01T02:55:29;11.90;54.60
19248;DHT22;9758;48.640;8.148;2023-04-01T02:57:56;11.90;54.60
19248;DHT22;9758;48.640;8.148;2023-04-01T03:00:24;11.90;54.80
19248;DHT22;9758;48.640;8.148;2023-04-01T03:02:51;11.90;54.60
19248;DHT22;9758;48.640;8.148;2023-04-01T03:05:18;12.00;54.70
19248;DHT22;9758;48.640;8.148;2023-04-01T03:07:45;11.90;54.70
19248;DHT22;9758;48.640;8.148;2023-04-01T03:10:12;11.90;54.70
19248;DHT22;9758;48.640;8.148;2023-04-01T03:12:40;11.90;54.70
19248;DHT22;9758;48.640;8.148;2023-04-01T03:15:10;11.90;54.70
19248;DHT22;9758;48.640;8.148;2023-04-01T03:17:38;11.90;54.80
19248;DHT22;9758;48.640;8.148;2023-04-01T03:20:06;11.90;54.70
19248;DHT22;9758;48.640;8.148;2023-04-01T03:22:34;11.90;55.60
19248;DHT22;9758;48.640;8.148;2023-04-01T03:25:01;11.90;54.80
19248;DHT22;9758;48.640;8.148;2023-04-01T03:27:28;11.90;54.80
19248;DHT22;9758;48.640;8.148;2023-04-01T03:29:56;11.90;54.80
19248;DHT22;9758;48.640;8.148;2023-04-01T03:32:23;11.90;54.80
19248;DHT22;9758;48.640;8.148;2023-04-01T03:34:49;11.90;54.80
19248;DHT22;9758;48.640;8.148;2023-04-01T03:37:16;11.90;54.80
19248;DHT22;9758;48.640;8.148;2023-04-01T03:39:43;11.90;54.70
19248;DHT22;9758;48.640;8.148;2023-04-01T03:42:10;11.90;54.70
19248;DHT22;9758;48.640;8.148;2023-04-01T03:44:37;11.90;54.80
19248;DHT22;9758;48.640;8.148;2023-04-01T03:47:05;11.90;54.90
19248;DHT22;9758;48.640;8.148;2023-04-01T03:49:34;11.90;54.80
19248;DHT22;9758;48.640;8.148;2023-04-01T03:52:01;11.90;54.80
19248;DHT22;9758;48.640;8.148;2023-04-01T03:54:29;11.90;54.80
19248;DHT22;9758;48.640;8.148;2023-04-01T03:56:58;11.90;54.90
19248;DHT22;9758;48.640;8.148;2023-04-01T03:59:25;12.00;54.90
19248;DHT22;9758;48.640;8.148;2023-04-01T04:01:53;11.90;54.80
19248;DHT22;9758;48.640;8.148;2023-04-01T04:04:21;11.90;54.80
19248;DHT22;9758;48.640;8.148;2023-04-01T04:06:51;11.90;54.80
19248;DHT22;9758;48.640;8.148;2023-04-01T04:09:18;11.90;54.70
19248;DHT22;9758;48.640;8.148;2023-04-01T04:11:45;11.90;54.70
19248;DHT22;9758;48.640;8.148;2023-04-01T04:14:12;11.90;54.90
19248;DHT22;9758;48.640;8.148;2023-04-01T04:16:38;12.00;54.90
19248;DHT22;9758;48.640;8.148;2023-04-01T04:19:05;12.00;54.90
19248;DHT22;9758;48.640;8.148;2023-04-01T04:21:33;12.00;54.70
19248;DHT22;9758;48.640;8.148;2023-04-01T04:24:01;12.00;54.70
19248;DHT22;9758;48.640;8.148;2023-04-01T04:26:28;12.00;54.80
19248;DHT22;9758;48.640;8.148;2023-04-01T04:28:55;12.10;54.70
19248;DHT22;9758;48.640;8.148;2023-04-01T04:31:23;12.00;54.60
19248;DHT22;9758;48.640;8.148;2023-04-01T04:33:50;12.00;54.60
19248;DHT22;9758;48.640;8.148;2023-04-01T04:36:18;12.10;54.50
19248;DHT22;9758;48.640;8.148;2023-04-01T04:38:47;12.00;54.50
19248;DHT22;9758;48.640;8.148;2023-04-01T04:41:15;12.00;54.50
19248;DHT22;9758;48.640;8.148;2023-04-01T04:43:49;12.00;54.60
19248;DHT22;9758;48.640;8.148;2023-04-01T04:46:16;12.00;54.50
19248;DHT22;9758;48.640;8.148;2023-04-01T04:48:43;12.00;54.50
19248;DHT22;9758;48.640;8.148;2023-04-01T04:51:13;12.00;54.50
19248;DHT22;9758;48.640;8.148;2023-04-01T04:53:40;12.00;54.50
19248;DHT22;9758;48.640;8.148;2023-04-01T04:56:08;12.00;54.50
19248;DHT22;9758;48.640;8.148;2023-04-01T04:58:35;12.00;54.40
19248;DHT22;9758;48.640;8.148;2023-04-01T05:01:06;12.00;54.40
19248;DHT22;9758;48.640;8.148;2023-04-01T05:03:33;12.10;54.40
19248;DHT22;9758;48.640;8.148;2023-04-01T05:06:00;12.10;54.40
19248;DHT22;9758;48.640;8.148;2023-04-01T05:08:27;12.10;54.40
19248;DHT22;9758;48.640;8.148;2023-04-01T05:10:53;12.00;54.30
19248;DHT22;9758;48.640;8.148;2023-04-01T05:13:21;12.00;54.40
19248;DHT22;9758;48.640;8.148;2023-04-01T05:15:48;12.00;54.40
19248;DHT22;9758;48.640;8.148;2023-04-01T05:18:15;12.00;54.30
19248;DHT22;9758;48.640;8.148;2023-04-01T05:20:47;12.00;54.90
19248;DHT22;9758;48.640;8.148;2023-04-01T05:23:14;11.90;54.30
19248;DHT22;9758;48.640;8.148;2023-04-01T05:25:41;11.90;54.40
19248;DHT22;9758;48.640;8.148;2023-04-01T05:28:08;12.00;54.50
19248;DHT22;9758;48.640;8.148;2023-04-01T05:30:36;11.90;54.40
19248;DHT22;9758;48.640;8.148;2023-04-01T05:33:03;11.90;54.60
19248;DHT22;9758;48.640;8.148;2023-04-01T05:35:30;11.90;54.50
19248;DHT22;9758;48.640;8.148;2023-04-01T05:37:56;11.90;54.50
19248;DHT22;9758;48.640;8.148;2023-04-01T05:40:23;11.90;54.50
19248;DHT22;9758;48.640;8.148;2023-04-01T05:42:50;11.90;54.60
19248;DHT22;9758;48.640;8.148;2023-04-01T05:45:17;11.90;54.70
19248;DHT22;9758;48.640;8.148;2023-04-01T05:47:45;11.90;54.70
19248;DHT22;9758;48.640;8.148;2023-04-01T05:50:12;12.00;54.80
19248;DHT22;9758;48.640;8.148;2023-04-01T05:52:40;11.90;54.80
19248;DHT22;9758;48.640;8.148;2023-04-01T05:55:08;11.90;54.60
19248;DHT22;9758;48.640;8.148;2023-04-01T05:57:35;11.80;55.10
19248;DHT22;9758;48.640;8.148;2023-04-01T06:00:02;11.80;54.90
19248;DHT22;9758;48.640;8.148;2023-04-01T06:02:30;11.80;55.10
19248;DHT22;9758;48.640;8.148;2023-04-01T06:05:13;11.70;55.00
19248;DHT22;9758;48.640;8.148;2023-04-01T06:07:41;11.70;55.00
19248;DHT22;9758;48.640;8.148;2023-04-01T06:12:49;11.60;55.20
19248;DHT22;9758;48.640;8.148;2023-04-01T06:15:29;11.60;55.20
19248;DHT22;9758;48.640;8.148;2023-04-01T06:18:21;11.60;56.10
19248;DHT22;9758;48.640;8.148;2023-04-01T06:20:58;11.50;55.40
19248;DHT22;9758;48.640;8.148;2023-04-01T06:23:46;11.60;55.40
19248;DHT22;9758;48.640;8.148;2023-04-01T06:26:24;11.60;55.40
19248;DHT22;9758;48.640;8.148;2023-04-01T06:29:16;11.60;55.40
19248;DHT22;9758;48.640;8.148;2023-04-01T06:32:11;11.60;55.50
19248;DHT22;9758;48.640;8.148;2023-04-01T06:35:03;11.60;55.20
19248;DHT22;9758;48.640;8.148;2023-04-01T06:38:05;11.60;55.40
19248;DHT22;9758;48.640;8.148;2023-04-01T06:40:54;11.60;55.30
19248;DHT22;9758;48.640;8.148;2023-04-01T06:43:27;11.70;55.40
19248;DHT22;9758;48.640;8.148;2023-04-01T06:46:06;11.70;55.40
19248;DHT22;9758;48.640;8.148;2023-04-01T06:48:51;11.70;55.20
19248;DHT22;9758;48.640;8.148;2023-04-01T06:51:28;11.70;55.30
19248;DHT22;9758;48.640;8.148;2023-04-01T06:54:05;11.70;55.40
19248;DHT22;9758;48.640;8.148;2023-04-01T06:56:37;11.70;56.20
19248;DHT22;9758;48.640;8.148;2023-04-01T06:59:12;11.70;55.70
19248;DHT22;9758;48.640;8.148;2023-04-01T07:02:05;11.70;55.60
19248;DHT22;9758;48.640;8.148;2023-04-01T07:04:42;11.70;55.60
19248;DHT22;9758;48.640;8.148;2023-04-01T07:07:16;11.70;55.50
19248;DHT22;9758;48.640;8.148;2023-04-01T07:09:50;11.60;55.70
19248;DHT22;9758;48.640;8.148;2023-04-01T07:12:23;11.70;55.60
19248;DHT22;9758;48.640;8.148;2023-04-01T07:14:57;11.70;55.70
19248;DHT22;9758;48.640;8.148;2023-04-01T07:17:30;11.70;55.80
19248;DHT22;9758;48.640;8.148;2023-04-01T07:20:03;11.60;55.70
19248;DHT22;9758;48.640;8.148;2023-04-01T07:22:33;11.60;55.70
19248;DHT22;9758;48.640;8.148;2023-04-01T07:25:14;11.60;55.80
19248;DHT22;9758;48.640;8.148;2023-04-01T07:27:42;11.60;56.30
19248;DHT22;9758;48.640;8.148;2023-04-01T07:30:15;11.50;56.00
19248;DHT22;9758;48.640;8.148;2023-04-01T07:32:45;11.50;56.00
19248;DHT22;9758;48.640;8.148;2023-04-01T07:35:25;11.50;56.00
19248;DHT22;9758;48.640;8.148;2023-04-01T07:38:05;11.60;56.10
19248;DHT22;9758;48.640;8.148;2023-04-01T07:40:43;11.50;55.90
19248;DHT22;9758;48.640;8.148;2023-04-01T07:43:31;11.60;56.30
19248;DHT22;9758;48.640;8.148;2023-04-01T07:46:07;11.60;56.20
19248;DHT22;9758;48.640;8.148;2023-04-01T07:48:47;11.60;56.10
19248;DHT22;9758;48.640;8.148;2023-04-01T07:51:22;11.60;56.00
19248;DHT22;9758;48.640;8.148;2023-04-01T07:54:00;11.60;56.00
19248;DHT22;9758;48.640;8.148;2023-04-01T08:12:40;11.60;56.30
19248;DHT22;9758;48.640;8.148;2023-04-01T08:15:16;11.60;56.30
19248;DHT22;9758;48.640;8.148;2023-04-01T08:17:54;11.60;56.70
19248;DHT22;9758;48.640;8.148;2023-04-01T08:20:37;11.60;56.30
19248;DHT22;9758;48.640;8.148;2023-04-01T08:23:11;11.60;56.30
19248;DHT22;9758;48.640;8.148;2023-04-01T08:25:42;11.70;56.40
19248;DHT22;9758;48.640;8.148;2023-04-01T08:28:17;11.70;56.30
19248;DHT22;9758;48.640;8.148;2023-04-01T08:30:50;11.80;56.60
19248;DHT22;9758;48.640;8.148;2023-04-01T08:33:23;11.70;56.30
19248;DHT22;9758;48.640;8.148;2023-04-01T08:35:57;11.80;56.30
19248;DHT22;9758;48.640;8.148;2023-04-01T08:38:30;11.70;56.30
19248;DHT22;9758;48.640;8.148;2023-04-01T08:41:01;11.70;56.40
19248;DHT22;9758;48.640;8.148;2023-04-01T08:47:12;11.70;56.50
19248;DHT22;9758;48.640;8.148;2023-04-01T08:50:01;11.70;56.80
19248;DHT22;9758;48.640;8.148;2023-04-01T08:52:49;11.70;56.60
19248;DHT22;9758;48.640;8.148;2023-04-01T08:55:47;11.70;56.60
19248;DHT22;9758;48.640;8.148;2023-04-01T08:58:52;11.70;56.60
19248;DHT22;9758;48.640;8.148;2023-04-01T09:01:43;11.70;56.80
19248;DHT22;9758;48.640;8.148;2023-04-01T09:04:47;11.70;56.70
19248;DHT22;9758;48.640;8.148;2023-04-01T09:07:32;11.60;57.00
19248;DHT22;9758;48.640;8.148;2023-04-01T09:13:33;11.60;56.70
19248;DHT22;9758;48.640;8.148;2023-04-01T09:16:18;11.60;56.70
19248;DHT22;9758;48.640;8.148;2023-04-01T09:18:59;11.70;56.80
19248;DHT22;9758;48.640;8.148;2023-04-01T09:22:03;11.70;56.70
19248;DHT22;9758;48.640;8.148;2023-04-01T09:24:42;11.70;57.00
19248;DHT22;9758;48.640;8.148;2023-04-01T09:27:21;11.80;56.70
19248;DHT22;9758;48.640;8.148;2023-04-01T09:36:02;11.70;56.80
19248;DHT22;9758;48.640;8.148;2023-04-01T09:38:42;11.70;56.80
19248;DHT22;9758;48.640;8.148;2023-04-01T09:41:23;11.70;57.50
19248;DHT22;9758;48.640;8.148;2023-04-01T09:44:13;11.60;57.00
19248;DHT22;9758;48.640;8.148;2023-04-01T09:46:58;11.60;57.10
19248;DHT22;9758;48.640;8.148;2023-04-01T09:49:45;11.70;57.10
19248;DHT22;9758;48.640;8.148;2023-04-01T09:52:34;11.70;56.90
19248;DHT22;9758;48.640;8.148;2023-04-01T10:20:09;11.90;56.90
19248;DHT22;9758;48.640;8.148;2023-04-01T10:23:07;11.90;57.30
19248;DHT22;9758;48.640;8.148;2023-04-01T10:32:21;11.90;57.90
19248;DHT22;9758;48.640;8.148;2023-04-01T10:35:23;11.90;57.20
19248;DHT22;9758;48.640;8.148;2023-04-01T10:38:20;11.90;57.20
19248;DHT22;9758;48.640;8.148;2023-04-01T10:41:16;11.90;57.30
19248;DHT22;9758;48.640;8.148;2023-04-01T10:56:55;11.90;57.30
19248;DHT22;9758;48.640;8.148;2023-04-01T11:00:15;11.90;57.20
19248;DHT22;9758;48.640;8.148;2023-04-01T11:03:30;11.90;57.30
19248;DHT22;9758;48.640;8.148;2023-04-01T11:06:30;12.00;57.40
19248;DHT22;9758;48.640;8.148;2023-04-01T11:28:27;12.00;58.40
19248;DHT22;9758;48.640;8.148;2023-04-01T11:31:41;12.00;57.60
19248;DHT22;9758;48.640;8.148;2023-04-01T11:34:41;12.00;57.60
19248;DHT22;9758;48.640;8.148;2023-04-01T11:37:18;12.00;58.50
19248;DHT22;9758;48.640;8.148;2023-04-01T11:39:59;12.00;57.40
19248;DHT22;9758;48.640;8.148;2023-04-01T11:42:34;12.00;57.50
19248;DHT22;9758;48.640;8.148;2023-04-01T11:45:23;11.90;57.70
19248;DHT22;9758;48.640;8.148;2023-04-01T11:48:03;11.90;57.70
19248;DHT22;9758;48.640;8.148;2023-04-01T11:50:44;11.90;58.10
19248;DHT22;9758;48.640;8.148;2023-04-01T11:53:33;11.90;57.40
19248;DHT22;9758;48.640;8.148;2023-04-01T11:56:39;12.00;57.40
19248;DHT22;9758;48.640;8.148;2023-04-01T12:02:38;12.00;57.40
19248;DHT22;9758;48.640;8.148;2023-04-01T12:05:34;12.00;57.70
19248;DHT22;9758;48.640;8.148;2023-04-01T12:08:13;12.00;57.50
19248;DHT22;9758;48.640;8.148;2023-04-01T12:10:46;11.90;57.60
19248;DHT22;9758;48.640;8.148;2023-04-01T12:13:25;11.90;57.70
19248;DHT22;9758;48.640;8.148;2023-04-01T12:16:09;11.90;57.90
19248;DHT22;9758;48.640;8.148;2023-04-01T12:19:15;11.90;57.80
19248;DHT22;9758;48.640;8.148;2023-04-01T12:21:55;11.90;58.00
19248;DHT22;9758;48.640;8.148;2023-04-01T12:24:45;12.00;57.70
19248;DHT22;9758;48.640;8.148;2023-04-01T12:27:37;12.00;57.70
19248;DHT22;9758;48.640;8.148;2023-04-01T12:33:18;12.00;57.50
19248;DHT22;9758;48.640;8.148;2023-04-01T12:36:21;12.00;57.50
19248;DHT22;9758;48.640;8.148;2023-04-01T12:39:22;12.00;57.50
19248;DHT22;9758;48.640;8.148;2023-04-01T12:42:04;12.00;57.60
19248;DHT22;9758;48.640;8.148;2023-04-01T12:44:46;12.00;57.60
19248;DHT22;9758;48.640;8.148;2023-04-01T12:47:36;12.00;57.80
19248;DHT22;9758;48.640;8.148;2023-04-01T13:12:16;12.00;57.90
19248;DHT22;9758;48.640;8.148;2023-04-01T13:15:06;11.90;58.00
19248;DHT22;9758;48.640;8.148;2023-04-01T13:17:43;12.00;58.60
19248;DHT22;9758;48.640;8.148;2023-04-01T13:20:19;12.00;57.90
19248;DHT22;9758;48.640;8.148;2023-04-01T13:22:56;12.00;57.90
19248;DHT22;9758;48.640;8.148;2023-04-01T13:25:36;12.00;58.10
19248;DHT22;9758;48.640;8.148;2023-04-01T13:28:10;12.10;58.00
19248;DHT22;9758;48.640;8.148;2023-04-01T13:30:44;12.10;57.90
19248;DHT22;9758;48.640;8.148;2023-04-01T13:33:17;12.20;58.00
19248;DHT22;9758;48.640;8.148;2023-04-01T13:36:01;12.20;57.90
19248;DHT22;9758;48.640;8.148;2023-04-01T13:38:46;12.30;57.90
19248;DHT22;9758;48.640;8.148;2023-04-01T13:41:21;12.30;57.80
19248;DHT22;9758;48.640;8.148;2023-04-01T13:44:00;12.40;57.80
19248;DHT22;9758;48.640;8.148;2023-04-01T13:46:41;12.40;57.90
19248;DHT22;9758;48.640;8.148;2023-04-01T13:49:28;12.40;57.70
19248;DHT22;9758;48.640;8.148;2023-04-01T13:52:33;12.40;57.80
19248;DHT22;9758;48.640;8.148;2023-04-01T13:55:30;12.40;57.90
19248;DHT22;9758;48.640;8.148;2023-04-01T13:58:49;12.40;57.80
19248;DHT22;9758;48.640;8.148;2023-04-01T14:01:25;12.30;57.90
19248;DHT22;9758;48.640;8.148;2023-04-01T14:07:18;12.30;58.00
19248;DHT22;9758;48.640;8.148;2023-04-01T14:09:59;12.30;57.90
19248;DHT22;9758;48.640;8.148;2023-04-01T14:12:31;12.30;57.90
19248;DHT22;9758;48.640;8.148;2023-04-01T14:15:23;12.40;57.90
19248;DHT22;9758;48.640;8.148;2023-04-01T14:18:04;12.40;57.70
19248;DHT22;9758;48.640;8.148;2023-04-01T14:20:39;12.40;57.70
19248;DHT22;9758;48.640;8.148;2023-04-01T14:23:46;12.40;57.90
19248;DHT22;9758;48.640;8.148;2023-04-01T14:26:53;12.40;57.70
19248;DHT22;9758;48.640;8.148;2023-04-01T14:29:29;12.30;57.70
19248;DHT22;9758;48.640;8.148;2023-04-01T14:32:06;12.40;57.70
19248;DHT22;9758;48.640;8.148;2023-04-01T14:34:51;12.40;57.60
19248;DHT22;9758;48.640;8.148;2023-04-01T14:37:37;12.40;57.60
19248;DHT22;9758;48.640;8.148;2023-04-01T14:40:24;12.40;57.50
19248;DHT22;9758;48.640;8.148;2023-04-01T14:43:10;12.40;57.90
19248;DHT22;9758;48.640;8.148;2023-04-01T14:46:08;12.40;57.60
19248;DHT22;9758;48.640;8.148;2023-04-01T14:48:50;12.40;57.60
19248;DHT22;9758;48.640;8.148;2023-04-01T14:51:23;12.40;57.50
19248;DHT22;9758;48.640;8.148;2023-04-01T14:54:00;12.40;57.50
19248;DHT22;9758;48.640;8.148;2023-04-01T14:56:40;12.50;57.40
19248;DHT22;9758;48.640;8.148;2023-04-01T14:59:10;12.40;57.50
19248;DHT22;9758;48.640;8.148;2023-04-01T15:01:43;12.40;57.50
19248;DHT22;9758;48.640;8.148;2023-04-01T15:04:53;12.40;57.40
19248;DHT22;9758;48.640;8.148;2023-04-01T15:07:58;12.50;57.60
19248;DHT22;9758;48.640;8.148;2023-04-01T15:10:50;12.50;57.50
19248;DHT22;9758;48.640;8.148;2023-04-01T15:13:30;12.50;57.60
19248;DHT22;9758;48.640;8.148;2023-04-01T15:16:09;12.50;57.50
19248;DHT22;9758;48.640;8.148;2023-04-01T15:18:44;12.60;57.70
19248;DHT22;9758;48.640;8.148;2023-04-01T15:21:23;12.60;57.60
19248;DHT22;9758;48.640;8.148;2023-04-01T15:24:05;12.70;57.50
19248;DHT22;9758;48.640;8.148;2023-04-01T15:27:03;12.70;57.40
19248;DHT22;9758;48.640;8.148;2023-04-01T15:30:00;12.70;57.40
19248;DHT22;9758;48.640;8.148;2023-04-01T15:32:39;12.70;57.30
19248;DHT22;9758;48.640;8.148;2023-04-01T15:35:19;12.70;57.30
19248;DHT22;9758;48.640;8.148;2023-04-01T15:37:53;12.70;57.30
19248;DHT22;9758;48.640;8.148;2023-04-01T15:40:26;12.70;57.30
19248;DHT22;9758;48.640;8.148;2023-04-01T15:43:03;12.70;57.40
19248;DHT22;9758;48.640;8.148;2023-04-01T15:45:39;12.70;57.30
19248;DHT22;9758;48.640;8.148;2023-04-01T15:48:19;12.70;57.30
19248;DHT22;9758;48.640;8.148;2023-04-01T15:50:56;12.80;57.30
19248;DHT22;9758;48.640;8.148;2023-04-01T15:53:43;12.80;57.20
19248;DHT22;9758;48.640;8.148;2023-04-01T15:56:35;12.80;57.10
19248;DHT22;9758;48.640;8.148;2023-04-01T15:59:14;12.80;57.10
19248;DHT22;9758;48.640;8.148;2023-04-01T16:01:53;12.80;57.10
19248;DHT22;9758;48.640;8.148;2023-04-01T16:04:56;12.80;57.00
19248;DHT22;9758;48.640;8.148;2023-04-01T16:07:41;12.80;57.10
19248;DHT22;9758;48.640;8.148;2023-04-01T16:10:21;12.70;57.00
19248;DHT22;9758;48.640;8.148;2023-04-01T16:13:01;12.70;57.00
19248;DHT22;9758;48.640;8.148;2023-04-01T16:15:37;12.70;57.00
19248;DHT22;9758;48.640;8.148;2023-04-01T16:18:21;12.70;57.00
19248;DHT22;9758;48.640;8.148;2023-04-01T16:20:57;12.80;56.90
19248;DHT22;9758;48.640;8.148;2023-04-01T16:23:33;12.70;56.90
19248;DHT22;9758;48.640;8.148;2023-04-01T16:26:07;12.70;57.10
19248;DHT22;9758;48.640;8.148;2023-04-01T16:28:42;12.70;57.10
19248;DHT22;9758;48.640;8.148;2023-04-01T16:31:27;12.80;57.20
19248;DHT22;9758;48.640;8.148;2023-04-01T16:34:04;12.80;57.10
19248;DHT22;9758;48.640;8.148;2023-04-01T16:36:51;12.80;57.10
19248;DHT22;9758;48.640;8.148;2023-04-01T16:39:33;12.80;57.00
19248;DHT22;9758;48.640;8.148;2023-04-01T16:42:20;12.80;57.00
19248;DHT22;9758;48.640;8.148;2023-04-01T16:45:23;12.80;57.00
19248;DHT22;9758;48.640;8.148;2023-04-01T16:47:56;12.70;56.90
19248;DHT22;9758;48.640;8.148;2023-04-01T16:50:47;12.70;56.90
19248;DHT22;9758;48.640;8.148;2023-04-01T16:53:45;12.70;56.90
19248;DHT22;9758;48.640;8.148;2023-04-01T16:56:36;12.70;56.90
19248;DHT22;9758;48.640;8.148;2023-04-01T16:59:24;12.70;56.90
19248;DHT22;9758;48.640;8.148;2023-04-01T17:02:13;12.70;56.80
19248;DHT22;9758;48.640;8.148;2023-04-01T17:05:00;12.70;57.00
19248;DHT22;9758;48.640;8.148;2023-04-01T17:07:38;12.60;56.90
19248;DHT22;9758;48.640;8.148;2023-04-01T17:10:30;12.50;56.90
